createdAt,value
2017-10-18T00:00:02.588Z,81.58
2017-10-18T00:02:30.168Z,81.71
2017-10-18T00:04:57.792Z,81.72
2017-10-18T00:07:25.372Z,81.78
2017-10-18T00:09:52.949Z,81.80
2017-10-18T00:12:20.584Z,81.84
2017-10-18T00:14:48.166Z,81.75
2017-10-18T00:17:15.760Z,82.00
2017-10-18T00:19:43.454Z,82.33
2017-10-18T00:22:11.318Z,82.40
2017-10-18T00:24:38.911Z,82.51
2017-10-18T00:27:06.841Z,82.20
2017-10-18T00:29:34.709Z,82.22
2017-10-18T00:32:02.311Z,82.13
2017-10-18T00:34:29.952Z,81.98
2017-10-18T00:36:57.544Z,82.00
2017-10-18T00:39:25.141Z,82.23
2017-10-18T00:41:52.765Z,82.01
2017-10-18T00:44:20.347Z,82.13
2017-10-18T00:46:47.943Z,82.16
2017-10-18T00:49:15.559Z,82.23
2017-10-18T00:51:43.140Z,82.35
2017-10-18T00:54:10.726Z,82.19
2017-10-18T00:56:38.343Z,82.22
2017-10-18T00:59:05.936Z,82.41
2017-10-18T01:01:33.520Z,82.52
2017-10-18T01:04:01.153Z,82.38
2017-10-18T01:06:28.737Z,82.31
2017-10-18T01:08:56.330Z,82.10
2017-10-18T01:11:23.960Z,82.08
2017-10-18T01:13:51.834Z,82.26
2017-10-18T01:16:19.424Z,82.44
2017-10-18T01:18:47.081Z,82.43
2017-10-18T01:21:14.668Z,82.42
2017-10-18T01:23:42.257Z,82.73
2017-10-18T01:26:09.885Z,82.69
2017-10-18T01:28:37.477Z,82.51
2017-10-18T01:31:05.371Z,82.67
2017-10-18T01:33:33.336Z,82.74
2017-10-18T01:36:01.206Z,82.75
2017-10-18T01:38:29.067Z,82.95
2017-10-18T01:40:56.697Z,82.97
2017-10-18T01:43:24.366Z,82.91
2017-10-18T01:45:52.269Z,82.90
2017-10-18T01:48:20.236Z,82.96
2017-10-18T01:50:47.830Z,82.96
2017-10-18T01:53:15.417Z,82.97
2017-10-18T01:55:43.036Z,82.83
2017-10-18T01:58:10.620Z,82.81
2017-10-18T02:00:38.548Z,82.76
2017-10-18T02:03:06.219Z,82.95
2017-10-18T02:05:33.804Z,83.00
2017-10-18T02:08:01.392Z,82.93
2017-10-18T02:10:29.304Z,82.99
2017-10-18T02:12:56.899Z,82.96
2017-10-18T02:15:24.496Z,82.92
2017-10-18T02:17:52.118Z,83.05
2017-10-18T02:20:19.709Z,82.90
2017-10-18T02:22:47.299Z,82.91
2017-10-18T02:25:14.929Z,83.15
2017-10-18T02:27:42.846Z,83.13
2017-10-18T02:30:10.441Z,82.99
2017-10-18T02:32:38.066Z,83.20
2017-10-18T02:35:05.669Z,83.09
2017-10-18T02:37:33.256Z,83.03
2017-10-18T02:40:00.881Z,82.96
2017-10-18T02:42:28.471Z,82.85
2017-10-18T02:44:56.120Z,82.86
2017-10-18T02:47:23.769Z,83.33
2017-10-18T02:49:51.352Z,83.32
2017-10-18T02:52:19.270Z,83.13
2017-10-18T02:54:46.903Z,83.19
2017-10-18T02:57:14.494Z,83.13
2017-10-18T02:59:42.076Z,83.05
2017-10-18T03:02:09.704Z,82.96
2017-10-18T03:04:37.298Z,82.91
2017-10-18T03:07:04.895Z,83.18
2017-10-18T03:09:32.524Z,83.10
2017-10-18T03:12:00.103Z,82.76
2017-10-18T03:14:27.692Z,82.82
2017-10-18T03:16:55.321Z,82.92
2017-10-18T03:19:22.912Z,82.83
2017-10-18T03:21:50.513Z,82.91
2017-10-18T03:24:18.482Z,82.69
2017-10-18T03:26:46.081Z,82.41
2017-10-18T03:29:14.015Z,82.27
2017-10-18T03:31:41.633Z,82.17
2017-10-18T03:34:09.232Z,82.34
2017-10-18T03:36:36.902Z,82.51
2017-10-18T03:39:04.525Z,82.60
2017-10-18T03:41:32.124Z,82.65
2017-10-18T03:43:59.716Z,82.66
2017-10-18T03:46:27.358Z,82.74
2017-10-18T03:48:54.941Z,82.85
2017-10-18T03:51:22.553Z,83.11
2017-10-18T03:53:50.184Z,83.26
2017-10-18T03:56:17.791Z,83.24
2017-10-18T03:58:45.399Z,83.72
2017-10-18T04:01:13.100Z,83.96
2017-10-18T04:03:40.682Z,84.21
2017-10-18T04:06:08.550Z,84.76
2017-10-18T04:08:36.523Z,84.84
2017-10-18T04:11:04.117Z,84.53
2017-10-18T04:13:32.049Z,84.88
2017-10-18T04:15:59.689Z,84.72
2017-10-18T04:18:27.269Z,84.75
2017-10-18T04:20:54.895Z,84.68
2017-10-18T04:23:22.529Z,84.90
2017-10-18T04:25:50.114Z,85.17
2017-10-18T04:28:17.701Z,85.18
2017-10-18T04:30:45.391Z,85.14
2017-10-18T04:33:13.252Z,85.06
2017-10-18T04:35:40.857Z,85.16
2017-10-18T04:38:08.488Z,84.78
2017-10-18T04:40:36.068Z,84.77
2017-10-18T04:43:03.668Z,85.02
2017-10-18T04:45:31.298Z,84.86
2017-10-18T04:47:58.897Z,85.01
2017-10-18T04:50:26.516Z,85.20
2017-10-18T04:52:54.142Z,85.17
2017-10-18T04:55:21.724Z,85.04
2017-10-18T04:57:49.324Z,84.72
2017-10-18T05:00:16.956Z,84.53
2017-10-18T05:02:44.549Z,84.57
2017-10-18T05:05:12.140Z,84.46
2017-10-18T05:07:39.802Z,84.43
2017-10-18T05:10:07.384Z,84.44
2017-10-18T05:12:34.977Z,84.40
2017-10-18T05:15:02.605Z,84.21
2017-10-18T05:17:30.192Z,84.16
2017-10-18T05:19:58.129Z,84.15
2017-10-18T05:22:25.747Z,83.88
2017-10-18T05:24:53.334Z,83.95
2017-10-18T05:27:20.912Z,83.87
2017-10-18T05:29:48.557Z,83.81
2017-10-18T05:32:16.147Z,83.68
2017-10-18T05:34:43.773Z,83.67
2017-10-18T05:37:11.419Z,83.66
2017-10-18T05:39:39.027Z,83.75
2017-10-18T05:42:06.664Z,83.74
2017-10-18T05:44:34.284Z,83.99
2017-10-18T05:47:01.920Z,84.27
2017-10-18T05:49:29.786Z,84.37
2017-10-18T05:51:57.754Z,84.35
2017-10-18T05:54:26.264Z,84.32
2017-10-18T05:56:53.869Z,84.52
2017-10-18T05:59:21.514Z,84.57
2017-10-18T06:01:49.111Z,84.65
2017-10-18T06:04:16.716Z,84.65
2017-10-18T06:06:44.335Z,84.42
2017-10-18T06:09:11.948Z,84.61
2017-10-18T06:11:39.529Z,84.64
2017-10-18T06:14:07.161Z,84.35
2017-10-18T06:16:34.799Z,84.25
2017-10-18T06:19:02.666Z,84.26
2017-10-18T06:21:30.286Z,83.93
2017-10-18T06:23:57.878Z,83.70
2017-10-18T06:26:25.480Z,83.82
2017-10-18T06:28:53.229Z,83.69
2017-10-18T06:31:20.842Z,83.67
2017-10-18T06:33:48.432Z,83.52
2017-10-18T06:36:16.061Z,83.67
2017-10-18T06:38:43.652Z,83.55
2017-10-18T06:41:11.243Z,83.33
2017-10-18T06:43:38.865Z,83.33
2017-10-18T06:46:06.463Z,82.86
2017-10-18T06:48:34.045Z,83.03
2017-10-18T06:51:01.701Z,83.08
2017-10-18T06:53:29.344Z,82.84
2017-10-18T06:55:56.960Z,82.58
2017-10-18T06:58:24.601Z,82.56
2017-10-18T07:00:52.188Z,82.12
2017-10-18T07:03:19.778Z,82.15
2017-10-18T07:05:47.412Z,82.22
2017-10-18T07:08:15.126Z,82.45
2017-10-18T07:10:43.094Z,82.76
2017-10-18T07:13:10.713Z,82.97
2017-10-18T07:15:39.102Z,83.25
2017-10-18T07:18:06.713Z,82.67
2017-10-18T07:20:34.363Z,82.70
2017-10-18T07:23:02.021Z,82.68
2017-10-18T07:25:29.809Z,82.57
2017-10-18T07:27:57.451Z,82.17
2017-10-18T07:30:25.043Z,81.99
2017-10-18T07:32:52.762Z,81.65
2017-10-18T07:35:20.398Z,81.33
2017-10-18T07:37:47.988Z,81.33
2017-10-18T07:40:15.630Z,81.25
2017-10-18T07:42:43.263Z,81.43
2017-10-18T07:45:11.134Z,81.67
2017-10-18T07:47:38.746Z,81.79
2017-10-18T07:50:24.293Z,81.78
2017-10-18T07:52:53.123Z,81.87
2017-10-18T07:55:20.776Z,81.41
2017-10-18T07:57:48.421Z,81.61
2017-10-18T08:00:16.084Z,81.71
2017-10-18T08:02:43.718Z,81.56
2017-10-18T08:05:11.325Z,81.42
2017-10-18T08:07:38.905Z,81.36
2017-10-18T08:10:06.552Z,81.20
2017-10-18T08:12:34.148Z,81.16
2017-10-18T08:15:01.735Z,80.87
2017-10-18T08:17:29.374Z,80.65
2017-10-18T08:19:56.965Z,80.67
2017-10-18T08:22:24.567Z,80.63
2017-10-18T08:24:52.225Z,80.28
2017-10-18T08:27:20.094Z,79.93
2017-10-18T08:29:47.792Z,80.04
2017-10-18T08:32:15.422Z,80.16
2017-10-18T08:34:43.013Z,80.02
2017-10-18T08:37:10.612Z,79.60
2017-10-18T08:39:38.253Z,79.02
2017-10-18T08:42:05.855Z,78.93
2017-10-18T08:44:33.743Z,78.61
2017-10-18T08:47:01.406Z,78.36
2017-10-18T08:49:29.262Z,79.02
2017-10-18T08:51:56.860Z,79.08
2017-10-18T08:54:24.533Z,78.64
2017-10-18T08:56:52.135Z,78.63
2017-10-18T08:59:20.019Z,78.77
2017-10-18T09:01:47.665Z,78.78
2017-10-18T09:04:15.296Z,78.12
2017-10-18T09:06:42.898Z,77.87
2017-10-18T09:09:10.887Z,77.39
2017-10-18T09:11:38.481Z,77.56
2017-10-18T09:14:06.088Z,77.72
2017-10-18T09:16:33.766Z,77.51
2017-10-18T09:19:01.365Z,77.44
2017-10-18T09:21:29.101Z,77.05
2017-10-18T09:23:56.744Z,76.50
2017-10-18T09:26:24.372Z,76.71
2017-10-18T09:28:52.146Z,75.93
2017-10-18T09:31:19.849Z,75.50
2017-10-18T09:33:47.460Z,76.51
2017-10-18T09:36:15.233Z,75.02
2017-10-18T09:38:42.891Z,75.45
2017-10-18T09:41:10.488Z,75.19
2017-10-18T09:43:38.361Z,73.63
2017-10-18T09:46:06.121Z,73.21
2017-10-18T09:48:34.024Z,72.95
2017-10-18T09:51:01.637Z,73.56
2017-10-18T09:53:29.287Z,72.76
2017-10-18T09:55:56.898Z,70.55
2017-10-18T09:58:24.514Z,71.04
2017-10-18T10:00:52.160Z,70.83
2017-10-18T10:03:20.706Z,70.20
2017-10-18T10:05:48.313Z,70.71
2017-10-18T10:08:16.229Z,70.71
2017-10-18T10:10:43.821Z,69.73
2017-10-18T10:13:11.661Z,70.29
2017-10-18T10:15:39.299Z,70.98
2017-10-18T10:18:06.895Z,70.31
2017-10-18T10:20:34.481Z,69.43
2017-10-18T10:23:02.104Z,69.00
2017-10-18T10:25:29.685Z,69.19
2017-10-18T10:27:57.359Z,68.31
2017-10-18T10:30:25.001Z,67.98
2017-10-18T10:32:52.614Z,70.23
2017-10-18T10:35:20.212Z,67.68
2017-10-18T10:37:48.243Z,69.49
2017-10-18T10:40:15.845Z,69.14
2017-10-18T10:42:43.708Z,69.94
2017-10-18T10:45:11.350Z,67.07
2017-10-18T10:47:38.940Z,69.16
2017-10-18T10:50:06.806Z,67.07
2017-10-18T10:52:34.465Z,67.71
2017-10-18T10:55:02.059Z,67.91
2017-10-18T10:57:29.670Z,67.58
2017-10-18T10:59:57.313Z,67.66
2017-10-18T11:02:24.893Z,67.15
2017-10-18T11:04:52.477Z,66.17
2017-10-18T11:07:20.120Z,66.49
2017-10-18T11:09:47.732Z,64.44
2017-10-18T11:12:15.314Z,65.87
2017-10-18T11:17:09.809Z,64.84
2017-10-18T11:19:37.734Z,63.33
2017-10-18T11:22:05.381Z,63.62
2017-10-18T11:24:32.967Z,64.53
2017-10-18T11:27:00.552Z,63.88
2017-10-18T11:29:28.234Z,63.23
2017-10-18T11:31:55.816Z,63.76
2017-10-18T11:34:23.420Z,63.07
2017-10-18T11:36:51.039Z,63.25
2017-10-18T11:39:18.632Z,61.65
2017-10-18T11:41:46.216Z,62.73
2017-10-18T11:44:13.845Z,62.15
2017-10-18T11:46:41.524Z,63.03
2017-10-18T11:49:09.383Z,61.01
2017-10-18T11:51:37.013Z,62.76
2017-10-18T11:54:04.600Z,61.79
2017-10-18T11:56:32.179Z,62.36
2017-10-18T11:58:59.809Z,61.42
2017-10-18T12:01:27.424Z,61.97
2017-10-18T12:03:55.257Z,61.70
2017-10-18T12:06:23.229Z,62.08
2017-10-18T12:08:50.820Z,62.10
2017-10-18T12:11:18.413Z,62.19
2017-10-18T12:13:46.035Z,62.69
2017-10-18T12:16:13.613Z,64.11
2017-10-18T12:18:41.217Z,64.85
2017-10-18T12:21:08.847Z,65.27
2017-10-18T12:23:36.775Z,64.17
2017-10-18T12:26:04.378Z,64.41
2017-10-18T12:28:32.127Z,63.58
2017-10-18T12:30:59.961Z,65.17
2017-10-18T12:33:27.830Z,64.28
2017-10-18T12:35:55.808Z,64.92
2017-10-18T12:38:23.679Z,64.27
2017-10-18T12:40:51.268Z,64.30
2017-10-18T12:43:18.889Z,64.03
2017-10-18T12:45:46.760Z,64.77
2017-10-18T12:48:14.346Z,64.19
2017-10-18T12:50:41.959Z,64.35
2017-10-18T12:53:09.639Z,62.86
2017-10-18T12:55:37.224Z,62.92
2017-10-18T12:58:04.862Z,63.68
2017-10-18T13:00:32.737Z,63.77
2017-10-18T13:03:00.328Z,62.48
2017-10-18T13:05:27.944Z,62.56
2017-10-18T13:07:55.539Z,61.39
2017-10-18T13:10:23.140Z,61.31
2017-10-18T13:12:50.776Z,60.77
2017-10-18T13:15:18.377Z,60.32
2017-10-18T13:17:45.970Z,60.10
2017-10-18T13:20:13.599Z,59.91
2017-10-18T13:22:41.196Z,60.56
2017-10-18T13:25:08.790Z,60.54
2017-10-18T13:27:36.428Z,59.32
2017-10-18T13:30:04.285Z,59.91
2017-10-18T13:32:31.891Z,59.09
2017-10-18T13:34:59.916Z,59.01
2017-10-18T13:37:27.493Z,58.99
2017-10-18T13:39:55.094Z,59.26
2017-10-18T13:42:23.476Z,58.37
2017-10-18T13:44:51.062Z,58.09
2017-10-18T13:47:18.673Z,58.19
2017-10-18T13:49:46.300Z,58.25
2017-10-18T13:52:13.892Z,57.87
2017-10-18T13:54:41.491Z,58.44
2017-10-18T13:57:09.130Z,58.32
2017-10-18T13:59:36.722Z,58.62
2017-10-18T14:02:04.339Z,58.16
2017-10-18T14:04:32.284Z,59.08
2017-10-18T14:06:59.873Z,58.75
2017-10-18T14:09:27.461Z,58.96
2017-10-18T14:11:55.088Z,59.23
2017-10-18T14:14:22.682Z,59.31
2017-10-18T14:16:51.497Z,59.29
2017-10-18T14:19:19.133Z,59.24
2017-10-18T14:21:46.723Z,59.33
2017-10-18T14:24:14.305Z,59.39
2017-10-18T14:26:41.930Z,59.29
2017-10-18T14:29:09.552Z,59.26
2017-10-18T14:31:37.166Z,59.29
2017-10-18T14:34:04.823Z,59.34
2017-10-18T14:36:32.403Z,59.67
2017-10-18T14:38:59.993Z,59.82
2017-10-18T14:41:27.618Z,59.99
2017-10-18T14:43:55.252Z,60.19
2017-10-18T14:46:22.837Z,59.11
2017-10-18T14:48:50.566Z,59.49
2017-10-18T14:51:18.212Z,59.50
2017-10-18T14:53:45.802Z,59.63
2017-10-18T14:56:13.485Z,60.14
2017-10-18T14:58:41.111Z,60.08
2017-10-18T15:01:09.046Z,60.43
2017-10-18T15:03:36.772Z,60.76
2017-10-18T15:06:04.493Z,61.30
2017-10-18T15:08:32.177Z,61.89
2017-10-18T15:10:59.825Z,62.38
2017-10-18T15:13:27.407Z,62.84
2017-10-18T15:15:54.996Z,63.12
2017-10-18T15:18:22.618Z,63.34
2017-10-18T15:20:50.201Z,63.72
2017-10-18T15:23:17.787Z,64.22
2017-10-18T15:25:45.449Z,64.35
2017-10-18T15:28:13.346Z,64.76
2017-10-18T15:30:41.552Z,64.95
2017-10-18T15:33:09.194Z,64.64
2017-10-18T15:35:36.782Z,64.48
2017-10-18T15:38:04.399Z,64.53
2017-10-18T15:40:32.045Z,64.76
2017-10-18T15:42:59.638Z,65.11
2017-10-18T15:45:27.239Z,65.32
2017-10-18T15:47:54.894Z,65.73
2017-10-18T15:50:22.822Z,65.62
2017-10-18T15:52:50.414Z,65.51
2017-10-18T15:55:18.350Z,65.88
2017-10-18T15:57:46.218Z,66.05
2017-10-18T16:00:13.809Z,66.14
2017-10-18T16:02:41.750Z,66.16
2017-10-18T16:05:09.369Z,66.48
2017-10-18T16:07:36.980Z,66.74
2017-10-18T16:10:04.609Z,66.47
2017-10-18T16:12:32.190Z,66.67
2017-10-18T16:14:59.785Z,67.07
2017-10-18T16:17:27.679Z,67.37
2017-10-18T16:19:55.264Z,67.57
2017-10-18T16:22:22.853Z,67.76
2017-10-18T16:24:50.472Z,68.09
2017-10-18T16:27:18.049Z,68.19
2017-10-18T16:29:45.633Z,68.44
2017-10-18T16:32:13.301Z,68.71
2017-10-18T16:34:40.897Z,68.83
2017-10-18T16:37:08.841Z,69.05
2017-10-18T16:39:36.469Z,69.31
2017-10-18T16:42:04.056Z,69.58
2017-10-18T16:44:31.927Z,69.94
2017-10-18T16:46:59.551Z,70.13
2017-10-18T16:49:27.152Z,70.44
2017-10-18T16:51:55.009Z,70.67
2017-10-18T16:54:22.876Z,71.12
2017-10-18T16:56:50.480Z,71.67
2017-10-18T16:59:18.061Z,71.73
2017-10-18T17:01:46.542Z,71.87
2017-10-18T17:04:14.452Z,72.10
2017-10-18T17:06:42.042Z,72.53
2017-10-18T17:09:09.679Z,72.76
2017-10-18T17:11:37.294Z,73.28
2017-10-18T17:14:04.876Z,73.66
2017-10-18T17:16:32.501Z,74.15
2017-10-18T17:19:00.095Z,74.31
2017-10-18T17:21:27.686Z,74.44
2017-10-18T17:23:55.306Z,74.41
2017-10-18T17:26:22.906Z,74.47
2017-10-18T17:28:50.895Z,74.45
2017-10-18T17:31:18.526Z,74.41
2017-10-18T17:33:46.116Z,74.52
2017-10-18T17:36:13.755Z,74.68
2017-10-18T17:38:41.403Z,74.54
2017-10-18T17:41:08.997Z,73.74
2017-10-18T17:43:36.817Z,73.30
2017-10-18T17:46:04.459Z,73.32
2017-10-18T17:48:32.107Z,73.13
2017-10-18T17:50:59.689Z,73.21
2017-10-18T17:53:27.616Z,72.98
2017-10-18T17:55:55.235Z,73.14
2017-10-18T17:58:22.820Z,73.49
2017-10-18T18:00:50.451Z,73.70
2017-10-18T18:03:18.037Z,73.64
2017-10-18T18:05:45.633Z,73.74
2017-10-18T18:08:13.598Z,73.62
2017-10-18T18:10:41.577Z,73.29
2017-10-18T18:13:09.758Z,73.38
2017-10-18T18:15:37.955Z,73.68
2017-10-18T18:18:05.907Z,73.82
2017-10-18T18:20:33.630Z,74.00
2017-10-18T18:23:01.509Z,74.06
2017-10-18T18:25:30.300Z,74.04
2017-10-18T18:27:58.370Z,74.13
2017-10-18T18:30:26.475Z,73.63
2017-10-18T18:32:54.064Z,73.50
2017-10-18T18:35:21.641Z,73.33
2017-10-18T18:37:49.541Z,73.00
2017-10-18T18:40:17.128Z,73.18
2017-10-18T18:42:44.972Z,72.98
2017-10-18T18:45:12.597Z,72.71
2017-10-18T18:47:40.195Z,72.65
2017-10-18T18:50:08.061Z,72.48
2017-10-18T18:52:35.684Z,72.52
2017-10-18T18:55:03.277Z,72.66
2017-10-18T18:57:31.159Z,72.79
2017-10-18T18:59:58.786Z,72.88
2017-10-18T19:02:26.374Z,72.77
2017-10-18T19:04:53.962Z,72.81
2017-10-18T19:07:21.598Z,73.00
2017-10-18T19:09:49.185Z,73.16
2017-10-18T19:12:16.776Z,73.24
2017-10-18T19:14:44.397Z,72.97
2017-10-18T19:17:12.253Z,73.01
2017-10-18T19:19:39.840Z,73.06
2017-10-18T19:22:07.784Z,73.13
2017-10-18T19:24:35.378Z,73.33
2017-10-18T19:27:02.965Z,73.56
2017-10-18T19:29:30.585Z,73.67
2017-10-18T19:31:58.206Z,73.33
2017-10-18T19:34:25.791Z,73.48
2017-10-18T19:36:53.457Z,73.28
2017-10-18T19:39:21.057Z,73.23
2017-10-18T19:41:48.699Z,73.10
2017-10-18T19:44:16.337Z,73.13
2017-10-18T19:46:43.924Z,73.23
2017-10-18T19:49:11.504Z,73.42
2017-10-18T19:51:39.129Z,73.48
2017-10-18T19:54:06.717Z,73.56
2017-10-18T19:56:34.313Z,73.68
2017-10-18T19:59:01.941Z,73.94
2017-10-18T20:01:29.544Z,73.98
2017-10-18T20:03:57.144Z,73.97
2017-10-18T20:06:24.774Z,73.99
2017-10-18T20:08:52.363Z,73.94
2017-10-18T20:11:19.964Z,74.00
2017-10-18T20:13:47.890Z,74.13
2017-10-18T20:16:15.484Z,74.07
2017-10-18T20:18:43.065Z,73.97
2017-10-18T20:21:10.698Z,73.68
2017-10-18T20:23:38.541Z,73.51
2017-10-18T20:26:06.134Z,73.68
2017-10-18T20:28:33.817Z,74.06
2017-10-18T20:31:01.424Z,74.13
2017-10-18T20:33:29.033Z,74.27
2017-10-18T20:35:56.664Z,74.36
2017-10-18T20:38:24.261Z,73.88
2017-10-18T20:40:51.879Z,73.19
2017-10-18T20:43:19.509Z,73.10
2017-10-18T20:45:47.097Z,73.18
2017-10-18T20:48:14.769Z,72.98
2017-10-18T20:50:42.417Z,72.94
2017-10-18T20:53:10.023Z,72.97
2017-10-18T20:55:37.957Z,72.94
2017-10-18T20:58:05.571Z,72.90
2017-10-18T21:00:33.176Z,72.44
2017-10-18T21:03:00.810Z,72.53
2017-10-18T21:05:28.416Z,72.19
2017-10-18T21:07:56.014Z,72.40
2017-10-18T21:10:23.626Z,72.69
2017-10-18T21:12:51.225Z,72.75
2017-10-18T21:15:18.844Z,73.12
2017-10-18T21:17:46.473Z,73.22
2017-10-18T21:20:14.103Z,73.33
2017-10-18T21:22:41.728Z,73.53
2017-10-18T21:25:09.339Z,73.46
2017-10-18T21:27:36.977Z,73.70
2017-10-18T21:30:04.944Z,73.58
2017-10-18T21:32:32.547Z,73.69
2017-10-18T21:35:00.185Z,73.89
2017-10-18T21:37:28.036Z,74.00
2017-10-18T21:39:55.655Z,74.04
2017-10-18T21:42:23.261Z,74.21
2017-10-18T21:44:50.864Z,74.37
2017-10-18T21:47:18.489Z,74.47
2017-10-18T21:49:46.113Z,74.71
2017-10-18T21:52:13.781Z,74.76
2017-10-18T21:54:41.390Z,74.82
2017-10-18T21:57:08.986Z,75.04
2017-10-18T21:59:37.266Z,75.09
2017-10-18T22:02:05.264Z,75.00
2017-10-18T22:04:33.139Z,75.13
2017-10-18T22:07:00.811Z,75.03
2017-10-18T22:09:28.411Z,75.29
2017-10-18T22:11:56.025Z,75.31
2017-10-18T22:14:23.616Z,75.27
2017-10-18T22:16:51.553Z,75.38
2017-10-18T22:19:19.160Z,75.63
2017-10-18T22:21:46.768Z,75.57
2017-10-18T22:24:14.756Z,75.76
2017-10-18T22:26:42.409Z,75.76
2017-10-18T22:29:10.042Z,75.83
2017-10-18T22:31:37.630Z,75.67
2017-10-18T22:34:05.221Z,75.67
2017-10-18T22:36:32.837Z,75.75
2017-10-18T22:39:00.428Z,75.76
2017-10-18T22:41:28.065Z,75.81
2017-10-18T22:43:55.648Z,75.88
2017-10-18T22:46:23.250Z,76.00
2017-10-18T22:48:50.870Z,76.12
2017-10-18T22:51:18.532Z,76.35
2017-10-18T22:53:46.161Z,76.35
2017-10-18T22:56:13.744Z,76.38
2017-10-18T22:58:41.352Z,76.27
2017-10-18T23:01:08.965Z,76.47
2017-10-18T23:03:36.844Z,76.38
2017-10-18T23:06:04.500Z,76.26
2017-10-18T23:08:32.377Z,76.41
2017-10-18T23:10:59.972Z,76.69
2017-10-18T23:13:27.582Z,76.44
2017-10-18T23:15:55.479Z,76.58
2017-10-18T23:18:23.114Z,76.81
2017-10-18T23:20:50.721Z,76.80
2017-10-18T23:23:18.324Z,76.75
2017-10-18T23:25:45.937Z,77.00
2017-10-18T23:28:13.529Z,77.25
2017-10-18T23:30:41.149Z,77.21
2017-10-18T23:33:08.757Z,77.21
2017-10-18T23:35:36.402Z,77.31
2017-10-18T23:38:04.334Z,77.49
2017-10-18T23:40:31.925Z,77.71
2017-10-18T23:42:59.557Z,77.62
2017-10-18T23:45:27.150Z,77.44
2017-10-18T23:47:54.745Z,77.57
2017-10-18T23:50:22.376Z,77.77
2017-10-18T23:52:54.834Z,77.82
2017-10-18T23:55:22.806Z,77.67
2017-10-18T23:57:50.446Z,77.64
